Time,TemperatureF,DewpointF,PressureIn,WindDirection,WindDirectionDegrees,WindSpeedMPH,WindSpeedGustMPH,Humidity,HourlyPrecipIn,Conditions,Clouds,dailyrainin,SoftwareType,DateUTC
2013-08-20 00:02:00,73.8,72.9,30.02,NNW,333,1.0,1.0,97,0.00,,---,0.00,VWS V14.01,2013-08-20 05:02:00,
2013-08-20 00:32:00,73.9,73.0,30.02,NW,314,0.0,2.0,97,0.00,,---,0.00,VWS V14.01,2013-08-20 05:32:00,
2013-08-20 01:02:00,73.5,72.6,30.02,NW,314,0.0,0.0,97,0.00,,---,0.00,VWS V14.01,2013-08-20 06:02:00,
2013-08-20 01:32:00,73.4,72.8,30.01,North,360,0.0,2.0,98,0.00,,---,0.00,VWS V14.01,2013-08-20 06:32:00,
2013-08-20 02:02:00,72.9,72.0,30.00,North,360,0.0,2.0,97,0.00,,---,0.00,VWS V14.01,2013-08-20 07:02:00,
2013-08-20 02:32:00,72.6,72.0,30.00,North,360,0.0,0.0,98,0.00,,---,0.00,VWS V14.01,2013-08-20 07:32:00,
2013-08-20 03:02:00,72.7,72.1,30.00,North,359,0.0,0.0,98,0.00,,---,0.00,VWS V14.01,2013-08-20 08:02:00,
2013-08-20 03:32:00,72.1,71.5,30.00,North,359,0.0,0.0,98,0.00,,---,0.00,VWS V14.01,2013-08-20 08:32:00,
2013-08-20 04:02:00,72.6,72.0,29.99,North,359,0.0,1.0,98,0.00,,---,0.00,VWS V14.01,2013-08-20 09:02:00,
2013-08-20 04:32:00,72.8,72.2,29.99,NW,307,0.0,2.0,98,0.00,,---,0.00,VWS V14.01,2013-08-20 09:32:00,
2013-08-20 05:02:00,72.7,72.1,30.00,NW,311,0.0,1.0,98,0.00,,---,0.00,VWS V14.01,2013-08-20 10:02:00,
2013-08-20 05:32:00,72.4,71.8,30.00,NW,311,0.0,0.0,98,0.01,,---,0.01,VWS V14.01,2013-08-20 10:32:00,
2013-08-20 06:02:00,72.2,71.6,30.01,NW,311,0.0,1.0,98,0.01,,---,0.01,VWS V14.01,2013-08-20 11:02:00,
2013-08-20 06:32:00,72.2,71.6,30.01,NW,311,0.0,0.0,98,0.01,,---,0.01,VWS V14.01,2013-08-20 11:32:00,
2013-08-20 07:02:00,73.6,73.0,30.02,North,1,0.0,1.0,98,0.00,,---,0.01,VWS V14.01,2013-08-20 12:02:00,
2013-08-20 07:32:00,75.3,74.4,30.02,NW,305,1.0,2.0,97,0.00,,---,0.01,VWS V14.01,2013-08-20 12:32:00,
2013-08-20 08:02:00,77.3,75.8,30.04,NW,323,2.0,3.0,95,0.00,,---,0.01,VWS V14.01,2013-08-20 13:02:00,
2013-08-20 08:32:00,79.0,76.5,30.04,NNW,334,2.0,5.0,92,0.00,,---,0.01,VWS V14.01,2013-08-20 13:32:00,
2013-08-20 09:02:00,80.9,77.7,30.05,NW,305,1.0,5.0,90,0.00,,---,0.01,VWS V14.01,2013-08-20 14:02:00,
2013-08-20 09:32:00,82.8,77.8,30.06,NNW,338,5.0,9.0,85,0.00,,---,0.01,VWS V14.01,2013-08-20 14:32:00,
2013-08-20 10:02:00,84.1,77.3,30.06,NNW,337,5.0,9.0,80,0.00,,---,0.01,VWS V14.01,2013-08-20 15:02:00,
2013-08-20 10:32:00,85.6,77.2,30.07,NNW,344,5.0,9.0,76,0.00,,---,0.01,VWS V14.01,2013-08-20 15:32:00,
2013-08-20 11:02:00,84.0,77.2,30.08,NE,44,4.0,11.0,80,0.00,,---,0.01,VWS V14.01,2013-08-20 16:02:00,
2013-08-20 11:32:00,76.5,72.3,30.09,SSW,201,7.0,22.0,87,0.00,,---,0.01,VWS V14.01,2013-08-20 16:32:00,
2013-08-20 12:02:00,75.6,72.8,30.08,SSW,213,3.0,13.0,91,0.00,,---,0.01,VWS V14.01,2013-08-20 17:02:00,
2013-08-20 12:32:00,75.6,72.5,30.07,SSE,156,2.0,4.0,90,0.00,,---,0.01,VWS V14.01,2013-08-20 17:32:00,
2013-08-20 13:02:00,76.4,73.2,30.06,South,172,0.0,5.0,90,0.00,,---,0.01,VWS V14.01,2013-08-20 18:02:00,
2013-08-20 13:32:00,78.1,73.2,30.05,SE,141,1.0,2.0,85,0.00,,---,0.01,VWS V14.01,2013-08-20 18:32:00,
2013-08-20 14:02:00,78.6,74.4,30.05,ESE,115,3.0,4.0,87,0.00,,---,0.01,VWS V14.01,2013-08-20 19:02:00,
2013-08-20 14:32:00,79.6,75.1,30.04,ESE,110,2.0,4.0,86,0.00,,---,0.01,VWS V14.01,2013-08-20 19:32:00,
2013-08-20 15:02:00,80.6,75.7,30.04,ENE,75,1.0,5.0,85,0.00,,---,0.01,VWS V14.01,2013-08-20 20:02:00,
2013-08-20 15:32:00,82.5,76.4,30.03,ESE,103,0.0,4.0,82,0.00,,---,0.01,VWS V14.01,2013-08-20 20:32:00,
2013-08-20 16:02:00,83.6,76.8,30.02,SE,139,1.0,6.0,80,0.00,,---,0.01,VWS V14.01,2013-08-20 21:02:00,
2013-08-20 16:32:00,84.7,77.1,30.03,SSE,162,6.0,6.0,78,0.00,,---,0.01,VWS V14.01,2013-08-20 21:32:00,
2013-08-20 17:02:00,84.1,75.7,30.03,ESE,110,0.0,7.0,76,0.00,,---,0.01,VWS V14.01,2013-08-20 22:02:00,
2013-08-20 17:32:00,83.9,75.9,30.04,East,93,0.0,3.0,77,0.00,,---,0.01,VWS V14.01,2013-08-20 22:32:00,
2013-08-20 18:02:00,83.6,76.8,30.03,ESE,105,0.0,1.0,80,0.00,,---,0.01,VWS V14.01,2013-08-20 23:02:00,
2013-08-20 18:32:00,77.3,71.0,30.03,ESE,119,4.0,12.0,81,0.03,,---,0.04,VWS V14.01,2013-08-20 23:32:00,
2013-08-20 19:02:00,76.8,74.0,30.02,SSE,152,0.0,5.0,91,0.04,,---,0.05,VWS V14.01,2013-08-21 00:02:00,
2013-08-20 19:32:00,76.0,74.2,30.02,NNW,328,0.0,1.0,94,0.05,,---,0.06,VWS V14.01,2013-08-21 00:32:00,
2013-08-20 20:02:00,76.4,75.2,30.03,SSE,162,1.0,3.0,96,0.02,,---,0.06,VWS V14.01,2013-08-21 01:02:00,
2013-08-20 20:32:00,76.7,75.2,30.04,SSE,148,4.0,5.0,95,0.01,,---,0.06,VWS V14.01,2013-08-21 01:32:00,
2013-08-20 21:02:00,75.9,74.4,30.05,SE,142,2.0,5.0,95,0.00,,---,0.06,VWS V14.01,2013-08-21 02:02:00,
2013-08-20 21:32:00,75.0,73.5,30.06,SE,131,0.0,5.0,95,0.00,,---,0.06,VWS V14.01,2013-08-21 02:32:00,
2013-08-20 22:02:00,74.3,72.8,30.08,SSE,162,0.0,4.0,95,0.00,,---,0.06,VWS V14.01,2013-08-21 03:02:00,
2013-08-20 22:32:00,73.8,72.3,30.08,SE,139,1.0,3.0,95,0.00,,---,0.06,VWS V14.01,2013-08-21 03:32:00,
2013-08-20 23:02:00,73.4,71.9,30.09,SE,133,1.0,4.0,95,0.00,,---,0.06,VWS V14.01,2013-08-21 04:02:00,
2013-08-20 23:32:00,73.2,72.0,30.09,SE,131,1.0,2.0,96,0.00,,---,0.06,VWS V14.01,2013-08-21 04:32:00,